20. Mai 2022

Uhrzeit Code Wetter Temp. Sichtweite Wolken Wind METAR/SPECI
17:20
V
16 °C 9 km 5.800 ft 330°   330° 4 kt METAR EDWE 201520Z 33004KT 9000 RA OVC058 16/14 Q1013
16:50
V
17 °C 10 km+ - 100°   100° 4 kt METAR EDWE 201450Z 10004KT CAVOK 17/12 Q1013
16:20
V
18 °C 10 km+ - 110°   110° 8 kt METAR EDWE 201420Z 11008KT CAVOK 18/11 Q1013
15:50
V
18 °C 10 km+ - 090°   090° 8 kt METAR EDWE 201350Z 09008KT CAVOK 18/10 Q1014
15:20
V
19 °C 10 km+ - 110°   110° 7 kt METAR EDWE 201320Z 11007KT 070V150 CAVOK 19/10 Q1015
14:50
V
18 °C 10 km+ - 120°   120° 7 kt METAR EDWE 201250Z 12007KT 090V170 CAVOK 18/09 Q1015
14:20
V
19 °C 10 km+ - 130°   130° 5 kt METAR EDWE 201220Z 13005KT 060V200 CAVOK 19/11 Q1016
13:20
V
17 °C 10 km+ - 120°   120° 4 kt METAR EDWE 201120Z 12004KT 030V190 CAVOK 17/11 Q1018
06:50
V
12 °C 9 km 16.000 ft 240°   240° 6 kt METAR EDWE 200450Z AUTO 24006KT 9000 // BKN160/// 12/11 Q1021
06:20
I
11 °C 4,8 km - 250°   250° 4 kt METAR EDWE 200420Z AUTO 25004KT 4800 // NCD 11/10 Q1020
05:50
V
11 °C 8 km - 240°   240° 5 kt METAR EDWE 200350Z AUTO 24005KT 8000 // FEW170/// 11/10 Q1020
05:20
M
11 °C 6 km - 250°   250° 5 kt METAR EDWE 200320Z AUTO 25005KT 6000 // FEW200/// 11/10 Q1020
04:50
V
11 °C 10 km+ - 240°   240° 5 kt METAR EDWE 200250Z AUTO 24005KT 9999 // SCT200/// 11/10 Q1021
04:20
V
11 °C 10 km+ - 250°   250° 5 kt METAR EDWE 200220Z AUTO 25005KT 9999 // FEW210/// 11/10 Q1021
03:50
V
11 °C 10 km+ - 260°   260° 5 kt METAR EDWE 200150Z AUTO 26005KT 9999 // NCD 11/10 Q1021
03:20
V
11 °C 10 km+ - 260°   260° 6 kt METAR EDWE 200120Z AUTO 26006KT 9999 // FEW010/// 11/10 Q1021
02:50
M
12 °C 10 km+ 1.000 ft 280°   280° 5 kt METAR EDWE 200050Z AUTO 28005KT 9999 // OVC010/// 12/11 Q1021
02:20
M
13 °C 10 km+ 1.200 ft 300°   300° 7 kt METAR EDWE 200020Z AUTO 30007KT 9999 // OVC012/// 13/11 Q1021
01:50
M
13 °C 10 km+ 1.200 ft 290°   290° 9 kt METAR EDWE 192350Z AUTO 29009KT 9999 // OVC012/// 13/11 Q1021
01:20
M
13 °C 10 km+ 1.300 ft 300°   300° 9 kt METAR EDWE 192320Z AUTO 30009KT 9999 // BKN013/// 13/11 Q1020
00:50
M
13 °C 10 km+ 1.000 ft 300°   300° 9 kt METAR EDWE 192250Z AUTO 30009KT 270V330 9999 // OVC010/// 13/12 Q1020
00:20
M
14 °C 10 km+ 1.000 ft 270°   270° 9 kt METAR EDWE 192220Z AUTO 27009KT 9999 // OVC010/// 14/12 Q1020

19. Mai 2022

Uhrzeit Code Wetter Temp. Sichtweite Wolken Wind METAR/SPECI
23:50
M
14 °C 10 km+ 1.000 ft 270°   270° 11 kt METAR EDWE 192150Z AUTO 27011KT 9999 // OVC010/// 14/12 Q1020
23:20
M
14 °C 10 km+ 1.100 ft 270°   270° 12 kt METAR EDWE 192120Z AUTO 27012KT 9999 // OVC011/// 14/13 Q1019
22:50
M
14 °C 7 km 1.400 ft 280°   280° 12 kt METAR EDWE 192050Z AUTO 28012KT 7000 // FEW012/// BKN014/// 14/13 Q1019
22:20
M
16 °C 9 km 1.000 ft 270°   270° 12 kt METAR EDWE 192020Z AUTO 27012KT 9000 // OVC010/// 16/14 Q1018
21:50
M
16 °C 10 km+ 1.200 ft 260°   260° 11 kt METAR EDWE 191950Z AUTO 26011KT 9999 // BKN012/// BKN023/// 16/15 Q1018
21:20
M
17 °C 7 km 1.000 ft 290°   290° 11 kt METAR EDWE 191920Z AUTO 29011KT 7000 // BKN010/// OVC059/// 17/16 Q1018
20:50
V
19 °C 10 km+ - 210°   210° 4 kt METAR EDWE 191850Z AUTO 21004KT 9999 // FEW023/// SCT076/// 19/16 Q1017
20:20
V
19 °C 10 km+ - 220°   220° 4 kt METAR EDWE 191820Z 22004KT 180V250 9999 SCT011 19/17 Q1017
19:50
V
20 °C 10 km+ - 210°   210° 5 kt METAR EDWE 191750Z 21005KT 180V240 9999 SCT010 20/17 Q1017
18:50
V
19 °C 10 km+ - Var   Var 2 kt METAR EDWE 191650Z VRB02KT CAVOK 19/16 Q1016
18:20
V
18 °C 10 km+ - 350°   350° 3 kt METAR EDWE 191620Z 35003KT 320V040 CAVOK 18/17 Q1016
17:50
V
17 °C 9 km - Var   Var 2 kt METAR EDWE 191550Z VRB02KT 9000 SCT007 17/17 Q1016
17:20
M
17 °C 6 km - 090°   090° 11 kt METAR EDWE 191520Z 09011KT 6000 NSC 17/17 Q1015 REDZ
16:50
M
17 °C 5 km 5.000 ft 290°   290° 7 kt METAR EDWE 191450Z 29007KT 270V340 5000 -DZ OVC050 17/16 Q1018 TSRA
16:20
I
18 °C 4,8 km 4.400 ft 290°   290° 17 kt METAR EDWE 191420Z 29017KT 4800 TSRA FEW016 OVC044CB 18/16 Q1018
15:50
V
22 °C 10 km+ - 290°   290° 10 kt METAR EDWE 191350Z 29010KT 9999 -DZ STC048 22/17 Q1017
15:20
V
24 °C 10 km+ - 170°   170° 6 kt METAR EDWE 191320Z 17006KT 140V220 CAVOK 24/16 Q1016
14:50
V
24 °C 10 km+ - 160°   160° 6 kt METAR EDWE 191250Z 16006KT 120V180 CAVOK 24/16 Q1016
14:20
V
23 °C 10 km+ - 140°   140° 8 kt METAR EDWE 191220Z 14008KT 110V170 CAVOK 23/17 Q1016
13:50
V
22 °C 10 km+ - 110°   110° 8 kt METAR EDWE 191150Z 11008KT 080V140 CAVOK 22/15 Q1016
13:20
V
22 °C 10 km+ - 120°   120° 8 kt METAR EDWE 191120Z 12008KT 080V160 CAVOK 22/16 Q1016
12:50
V
21 °C 10 km+ - 100°   100° 5 kt METAR EDWE 191050Z 10005KT 060V150 CAVOK 21/17 Q1017
12:20
V
20 °C 10 km+ - 060°   060° 4 kt METAR EDWE 191020Z 06004KT 030V120 CAVOK 20/16 Q1018
06:20
I
14 °C 3,5 km - 100°   100° 4 kt METAR EDWE 190420Z AUTO 10004KT 3500 // SCT230/// 14/13 Q1017
05:50
I
13 °C 3,1 km - 100°   100° 6 kt METAR EDWE 190350Z AUTO 10006KT 3100 // NCD 13/13 Q1017
05:20
I
13 °C 3 km - 110°   110° 3 kt METAR EDWE 190320Z AUTO 11003KT 3000 // NCD 13/12 Q1017
04:50
L
13 °C 1 km - 080°   080° 4 kt METAR EDWE 190250Z AUTO 08004KT 1000 R25/1900U // NCD 13/13 Q1018
04:20
I
14 °C 2,1 km - Var   Var 2 kt METAR EDWE 190220Z AUTO VRB02KT 2100 // NCD 14/13 Q1018
03:50
I
14 °C 2,5 km - 100°   100° 3 kt METAR EDWE 190150Z AUTO 10003KT 2500 // SCT083/// 14/13 Q1018
03:20
L
13 °C 350 m - 030°   030° 3 kt METAR EDWE 190120Z AUTO 03003KT 0350 R25/0400N // SCT085/// 13/12 Q1018
02:50
L
13 °C 350 m - 040°   040° 2 kt METAR EDWE 190050Z AUTO 04002KT 0350 R25/0400D // FEW079/// 13/12 Q1019
02:20
I
13 °C 2,2 km 8.500 ft 350°   350° 2 kt METAR EDWE 190020Z AUTO 35002KT 2200 // BKN085/// 13/13 Q1019
01:50
I
13 °C 1,6 km 8.700 ft 340°   340° 1 kt METAR EDWE 182350Z AUTO 34001KT 1600 // BKN087/// 13/13 Q1019
01:20
L
13 °C 600 m - Var   Var 1 kt METAR EDWE 182320Z AUTO VRB01KT 0600 R25/0550D // SCT086/// 13/12 Q1019
00:50
L
13 °C 300 m - Var   Var 1 kt METAR EDWE 182250Z AUTO VRB01KT 0300 R25/0350D // FEW087/// 13/12 Q1019
00:20
I
14 °C 2,5 km - Var   000° 0 kt METAR EDWE 182220Z AUTO 00000KT 2500 // NCD 14/13 Q1019

18. Mai 2022

Uhrzeit Code Wetter Temp. Sichtweite Wolken Wind METAR/SPECI
23:50
I
14 °C 4,5 km - 270°   270° 3 kt METAR EDWE 182150Z AUTO 27003KT 4500 // NCD 14/13 Q1019
23:20
I
14 °C 3,3 km - 270°   270° 4 kt METAR EDWE 182120Z AUTO 27004KT 3300 // NCD 14/13 Q1020
22:50
M
15 °C 5 km - 290°   290° 2 kt METAR EDWE 182050Z AUTO 29002KT 5000 // NCD 15/13 Q1020
22:20
M
15 °C 6 km - 290°   290° 2 kt METAR EDWE 182020Z AUTO 29002KT 6000 // NCD 15/13 Q1020
21:50
M
16 °C 7 km - 280°   280° 5 kt METAR EDWE 181950Z AUTO 28005KT 7000 // ///////// 16/14 Q1020
21:20
V
17 °C 9 km - 300°   300° 2 kt METAR EDWE 181920Z AUTO 30002KT 9000 // ///////// 17/14 Q1020
20:50
V
17 °C 10 km+ - 320°   320° 3 kt METAR EDWE 181850Z AUTO 32003KT 9999 // ///////// 17/14 Q1020
Ältere Daten

Laden Sie unsere App herunter

Einfacher Zugriff auf das gesamte Flugwetter auf Ihrem Mobiltelefon und Tablet.
Mit vielen Funktionen, die auf der Website nicht verfügbar sind, wie Offline-Unterstützung und eine persönliche Flughafenliste.

Wir und Dritte verfolgen dein Internetverhalten auf unserer Website mit Cookies. Wenn du fortfährst, gehen wir davon aus, dass du mit unserer Cookie-Richtlinie einverstanden bist. Mehr erfahren